Rochester, MN (55901)

8:13 AM CST on December 29, 2014 (GMT -0600)
Honeckland, Elton Hills | Change Station
CLOSE
Current Station
Personal Weather Station
Location: Rochester, MN
Elevation: 1037 ft
Nearby Weather Stations
Active Advisory: Wind Chill Advisory

Elev 1037 ft 44.05 °N, 92.48 °W | Updated 9 minutes ago

Overcast
Overcast
6.6 °F
Feels Like 0 °F
N
3.2
Wind Variable Wind from NE

Today
High -- | Low -- °F
--% Chance of Precip.
Yesterday
High -- | Low -- °F
Precip. -- in
7:44 AM 4:39 PM
First Quarter, 59% visible
Pressure 30.45 in
Visibility 10.0 miles
Clouds Overcast 8000 ft
Windchill 0 °F
Dew Point 2 °F
Humidity 82%
Rainfall 0.00 in
Snow Depth Not available.
UV 0 out of 12
Pollen .10 out of 12
Air Quality Not available.
Flu Activity Not available.
METAR K9MN 291353Z AUTO 33005KT 10SM OVC080 M13/M18 A3045 RMK AO1 T11351184

More Conditions Fewer Conditions

Pressure 30.45 in
Visibility 10.0 miles
Clouds Overcast 8000 ft
Windchill 0 °F
Dew Point 2 °F
Humidity 82%
Rainfall 0.00 in
Snow Depth Not available.
UV 0 out of 12
Pollen .10 out of 12
Air Quality Not available.
Flu Activity Not available.
METAR K9MN 291353Z AUTO 33005KT 10SM OVC080 M13/M18 A3045 RMK AO1 T11351184

More Conditions Fewer Conditions

10-Day Weather Forecast

Almanac

Astronomy

Dec. 29, 2014 Rise Set
Actual Time
Civil Twilight
Nautical Twilight
Astronomical Twilight
Moon
Length of Visible Light
Length of Day
Tomorrow will be .
, % of the Moon is Illuminated

Today's Extremes

State Highs State Lows

Community

WunderPhotos

Upload Photos

1,781,587 photos uploaded!

WunderBlogs® & News

Nearby

Air Quality

  Air Quality AQ Index Pollutant
Not available.

Snow Depth

Station Depth Elevation

Earthquake Activity

City Distance Mag. Time & Date
Minimum magnitude displayed is 2.5.

Coastal Water Temperatures

Place Temperature

Nearby Weather Stations